Time;durP1;ratioP1;P1;durP2;ratioP2;P2;SDS_P1;SDS_P2;PMS_P1;PMS_P2;Temp;Humidity;BMP_temperature;BMP_pressure;BME280_temperature;BME280_humidity;BME280_pressure;Samples;Min_cycle;Max_cycle;Signal;HPM_P1;HPM_P2
2023/10/19 00:00:40;;;;;;;0.40;0.40;;;;;;;13.51;100.00;98420.50;5071812;28;20048;-59
2023/10/19 00:03:06;;;;;;;0.47;0.47;;;;;;;13.52;100.00;98424.88;5072931;28;20036;-59
2023/10/19 00:05:32;;;;;;;0.50;0.50;;;;;;;13.53;100.00;98426.56;5074468;28;20482;-59
2023/10/19 00:08:00;;;;;;;0.50;0.50;;;;;;;13.55;100.00;98419.31;5084319;28;20013;-59
2023/10/19 00:10:29;;;;;;;0.50;0.50;;;;;;;13.54;100.00;98423.78;5089072;28;20031;-59
2023/10/19 00:13:05;;;;;;;0.40;0.40;;;;;;;13.54;100.00;98420.28;5091448;28;20039;-59
2023/10/19 00:15:33;;;;;;;0.50;0.50;;;;;;;13.56;100.00;98426.38;5089842;28;20528;-60
2023/10/19 00:18:17;;;;;;;0.50;0.50;;;;;;;13.59;100.00;98426.16;5071698;28;20090;-59
2023/10/19 00:20:52;;;;;;;0.50;0.50;;;;;;;13.56;100.00;98411.19;5071243;28;20036;-59
2023/10/19 00:23:24;;;;;;;;;;;;;;;13.57;100.00;98406.69;5080530;28;20077;-59
2023/10/19 00:25:53;;;;;;;0.40;0.40;;;;;;;13.60;100.00;98406.47;5081540;28;20368;-59
2023/10/19 00:28:19;;;;;;;0.40;0.40;;;;;;;13.61;100.00;98402.84;5071039;28;20059;-59
2023/10/19 00:30:45;;;;;;;0.45;0.45;;;;;;;13.61;100.00;98395.69;5073327;28;20056;-59
2023/10/19 00:33:21;;;;;;;0.40;0.40;;;;;;;13.63;100.00;98399.09;5071906;28;20055;-59
2023/10/19 00:36:07;;;;;;;0.40;0.40;;;;;;;13.64;100.00;98390.13;5071724;28;20028;-59
2023/10/19 00:41:11;;;;;;;0.50;0.50;;;;;;;13.67;100.00;98391.72;5084190;28;20035;-59
2023/10/19 00:43:44;;;;;;;0.50;0.50;;;;;;;13.70;100.00;98407.53;5091281;28;20028;-58
2023/10/19 00:48:45;;;;;;;;;;;;;;;13.67;100.00;98434.47;5090942;28;20039;-58
2023/10/19 00:53:58;;;;;;;0.50;0.50;;;;;;;13.70;100.00;98411.09;5085635;28;20028;-59
2023/10/19 00:56:27;;;;;;;0.50;0.50;;;;;;;13.71;100.00;98403.91;5075243;28;20107;-59
2023/10/19 00:58:56;;;;;;;0.40;0.40;;;;;;;13.74;100.00;98411.72;5070914;28;20388;-59
2023/10/19 01:01:28;;;;;;;0.50;0.50;;;;;;;13.77;100.00;98406.16;5073422;28;20029;-59
2023/10/19 01:03:56;;;;;;;0.40;0.40;;;;;;;13.77;100.00;98403.47;5071088;28;20096;-59
2023/10/19 01:06:25;;;;;;;0.40;0.40;;;;;;;13.77;100.00;98398.13;5071100;28;20032;-59
2023/10/19 01:08:52;;;;;;;0.40;0.40;;;;;;;13.79;100.00;98385.53;5070095;28;20048;-59
2023/10/19 01:11:20;;;;;;;0.40;0.40;;;;;;;13.77;100.00;98376.75;5072955;28;20075;-59
2023/10/19 01:13:47;;;;;;;0.40;0.40;;;;;;;13.79;100.00;98369.50;5069208;28;20097;-59
2023/10/19 01:16:23;;;;;;;0.40;0.40;;;;;;;13.79;100.00;98372.16;5066574;28;20104;-59
2023/10/19 01:18:53;;;;;;;0.50;0.50;;;;;;;13.82;100.00;98369.28;5069895;28;20029;-59
2023/10/19 01:21:27;;;;;;;0.40;0.40;;;;;;;13.84;100.00;98362.84;5067955;28;20028;-59
2023/10/19 01:23:52;;;;;;;0.40;0.40;;;;;;;13.80;100.00;98360.50;5067866;28;20086;-59
2023/10/19 01:26:21;;;;;;;0.47;0.47;;;;;;;13.80;100.00;98361.38;5069139;28;20043;-60
2023/10/19 01:28:47;;;;;;;0.50;0.50;;;;;;;13.78;100.00;98357.06;5071134;28;20119;-59
2023/10/19 01:31:22;;;;;;;0.50;0.50;;;;;;;13.79;100.00;98353.47;5067105;28;20036;-60
2023/10/19 01:33:49;;;;;;;0.40;0.40;;;;;;;13.78;100.00;98341.03;5069950;28;20024;-59
2023/10/19 01:36:14;;;;;;;0.50;0.50;;;;;;;13.80;100.00;98339.13;5069270;28;20036;-60
2023/10/19 01:38:40;;;;;;;0.45;0.45;;;;;;;13.77;100.00;98328.66;5053186;28;20166;-60
2023/10/19 01:41:13;;;;;;;0.40;0.40;;;;;;;13.75;100.00;98319.88;5050370;28;20029;-59
2023/10/19 01:43:43;;;;;;;0.45;0.45;;;;;;;13.78;100.00;98328.53;5059059;28;20395;-59
2023/10/19 01:46:12;;;;;;;0.40;0.40;;;;;;;13.76;100.00;98321.59;5069850;28;20028;-59
2023/10/19 01:48:42;;;;;;;0.40;0.40;;;;;;;13.75;100.00;98319.88;5066154;28;20031;-59
2023/10/19 01:51:13;;;;;;;0.50;0.50;;;;;;;13.75;100.00;98320.75;5049639;28;20048;-59
2023/10/19 01:53:43;;;;;;;0.40;0.40;;;;;;;13.77;100.00;98323.31;5061269;28;20024;-59
2023/10/19 01:56:12;;;;;;;0.50;0.50;;;;;;;13.77;100.00;98317.97;5069040;28;20107;-59
2023/10/19 01:58:44;;;;;;;0.40;0.40;;;;;;;13.77;100.00;98313.47;5065686;28;20078;-59
2023/10/19 02:01:32;;;;;;;0.40;0.40;;;;;;;13.79;100.00;98303.53;5069318;28;20051;-59
2023/10/19 02:03:58;;;;;;;0.50;0.50;;;;;;;13.81;100.00;98314.09;5062948;28;20068;-59
2023/10/19 02:06:34;;;;;;;0.40;0.40;;;;;;;13.82;100.00;98315.81;5049177;28;20044;-58
2023/10/19 02:09:09;;;;;;;0.50;0.50;;;;;;;13.82;100.00;98308.63;5048493;28;20021;-58
2023/10/19 02:11:41;;;;;;;0.45;0.45;;;;;;;13.84;100.00;98311.19;5072141;28;20043;-58
2023/10/19 02:14:13;;;;;;;0.40;0.40;;;;;;;13.87;100.00;98313.66;5086233;28;20103;-59
2023/10/19 02:16:40;;;;;;;0.50;0.50;;;;;;;13.87;100.00;98306.47;5088544;28;20629;-59
2023/10/19 02:19:06;;;;;;;0.40;0.40;;;;;;;13.84;100.00;98297.81;5084845;28;20112;-58
2023/10/19 02:21:32;;;;;;;0.40;0.40;;;;;;;13.83;100.00;98288.13;5072626;28;20081;-59
2023/10/19 02:23:58;;;;;;;0.40;0.40;;;;;;;13.82;100.00;98294.44;5089385;28;20540;-58
2023/10/19 02:26:27;;;;;;;0.40;0.40;;;;;;;13.81;100.00;98292.72;5072756;28;20111;-58
2023/10/19 02:28:53;;;;;;;0.40;0.40;;;;;;;13.81;100.00;98292.72;5068877;28;20370;-58
2023/10/19 02:31:23;;;;;;;0.43;0.43;;;;;;;13.76;100.00;98290.38;5069317;28;20028;-58
2023/10/19 02:33:52;;;;;;;0.40;0.40;;;;;;;13.71;100.00;98284.53;5085119;28;20455;-58
2023/10/19 02:36:20;;;;;;;0.50;0.50;;;;;;;13.73;100.00;98279.06;5068781;28;20032;-57
2023/10/19 02:38:52;;;;;;;0.40;0.40;;;;;;;13.75;100.00;98272.66;5074825;28;20099;-58
2023/10/19 02:41:19;;;;;;;0.50;0.50;;;;;;;13.78;100.00;98292.94;5085737;28;20039;-58
2023/10/19 02:44:00;;;;;;;0.47;0.47;;;;;;;13.80;100.00;98285.69;5088177;28;20024;-58
2023/10/19 02:46:26;;;;;;;0.40;0.40;;;;;;;13.80;100.00;98281.19;5079788;28;20032;-59
2023/10/19 02:48:52;;;;;;;0.50;0.50;;;;;;;13.82;100.00;98278.41;5067925;28;20516;-59
2023/10/19 02:51:19;;;;;;;0.50;0.50;;;;;;;13.81;100.00;98276.69;5067983;28;20036;-59
2023/10/19 02:53:44;;;;;;;0.50;0.50;;;;;;;13.83;100.00;98280.09;5081778;28;20368;-58
2023/10/19 02:56:19;;;;;;;0.50;0.50;;;;;;;13.85;100.00;98283.53;5076195;28;20036;-58
2023/10/19 02:58:49;;;;;;;0.50;0.50;;;;;;;13.83;100.00;98269.41;5068610;28;20678;-59
2023/10/19 03:01:21;;;;;;;0.45;0.45;;;;;;;13.78;100.00;98274.25;5071078;28;20110;-58
2023/10/19 03:03:49;;;;;;;0.40;0.40;;;;;;;13.74;100.00;98270.09;5074808;28;20035;-59
2023/10/19 03:06:19;;;;;;;0.50;0.50;;;;;;;13.73;100.00;98268.38;5087777;28;20131;-59
2023/10/19 03:08:46;;;;;;;0.43;0.43;;;;;;;13.72;100.00;98258.66;5088009;28;20055;-59
2023/10/19 03:11:13;;;;;;;0.50;0.50;;;;;;;13.70;100.00;98249.91;5073430;28;20045;-59
2023/10/19 03:13:40;;;;;;;0.40;0.40;;;;;;;13.74;100.00;98248.72;5067898;28;20028;-59
2023/10/19 03:16:07;;;;;;;0.40;0.40;;;;;;;13.72;100.00;98246.13;5072135;28;20035;-59
2023/10/19 03:18:34;;;;;;;0.50;0.50;;;;;;;13.74;100.00;98254.06;5090105;28;20555;-59
2023/10/19 03:21:03;;;;;;;0.50;0.50;;;;;;;13.69;100.00;98245.53;5092675;28;20105;-59
2023/10/19 03:23:29;;;;;;;0.40;0.40;;;;;;;13.65;100.00;98255.59;5092399;28;20020;-59
2023/10/19 03:28:41;;;;;;;0.50;0.50;;;;;;;13.62;100.00;98244.25;5072589;28;20040;-58
2023/10/19 03:31:07;;;;;;;0.50;0.50;;;;;;;13.62;100.00;98244.25;5075881;28;20020;-59
2023/10/19 03:33:36;;;;;;;0.50;0.50;;;;;;;13.57;100.00;98241.94;5072465;28;20086;-59
2023/10/19 03:36:03;;;;;;;0.50;0.50;;;;;;;13.49;100.00;98238.97;5088614;28;20020;-58
2023/10/19 03:38:34;;;;;;;0.50;0.50;;;;;;;13.44;100.00;98232.25;5092368;28;20495;-59
2023/10/19 03:41:06;;;;;;;0.40;0.40;;;;;;;13.40;100.00;98220.06;5088527;28;20034;-59
2023/10/19 03:43:32;;;;;;;0.50;0.50;;;;;;;13.36;100.00;98215.94;5092032;28;20028;-59
2023/10/19 03:45:59;;;;;;;0.50;0.50;;;;;;;13.31;100.00;98215.41;5087694;28;20698;-58
2023/10/19 03:48:30;;;;;;;0.50;0.50;;;;;;;13.28;100.00;98218.31;5071809;28;20086;-59
2023/10/19 03:50:56;;;;;;;0.50;0.50;;;;;;;13.29;100.00;98222.66;5053947;28;20043;-59
2023/10/19 03:53:22;;;;;;;0.40;0.40;;;;;;;13.30;100.00;98217.22;5081549;28;20077;-58
2023/10/19 03:55:49;;;;;;;0.50;0.50;;;;;;;13.22;100.00;98216.91;5082342;28;20060;-59
2023/10/19 03:58:16;;;;;;;0.50;0.50;;;;;;;13.15;100.00;98218.31;5081864;28;20123;-59
2023/10/19 04:00:41;;;;;;;0.50;0.50;;;;;;;13.04;100.00;98212.88;5088643;28;20024;-59
2023/10/19 04:03:07;;;;;;;0.43;0.43;;;;;;;12.93;100.00;98212.78;5078450;28;20553;-59
2023/10/19 04:05:38;;;;;;;0.45;0.45;;;;;;;12.86;100.00;98212.34;5088046;28;20020;-59
2023/10/19 04:08:20;;;;;;;0.50;0.50;;;;;;;12.78;100.00;98216.50;5070574;28;20112;-59
2023/10/19 04:11:08;;;;;;;0.43;0.43;;;;;;;12.66;100.00;98217.34;5072485;28;20028;-59
2023/10/19 04:13:36;;;;;;;0.40;0.40;;;;;;;12.55;100.00;98206.59;5080928;28;20456;-58
2023/10/19 04:16:02;;;;;;;0.50;0.50;;;;;;;12.41;100.00;98188.88;5086418;28;20089;-59
2023/10/19 04:18:28;;;;;;;0.50;0.50;;;;;;;12.39;100.00;98196.13;5079303;28;20099;-58
2023/10/19 04:23:26;;;;;;;0.50;0.50;;;;;;;12.20;100.00;98194.81;5087505;28;20032;-60
2023/10/19 04:25:53;;;;;;;0.50;0.50;;;;;;;12.15;100.00;98208.47;5091332;28;20094;-60
2023/10/19 04:28:30;;;;;;;0.50;0.50;;;;;;;12.09;100.00;98208.03;5090814;28;20273;-60
2023/10/19 04:30:55;;;;;;;0.50;0.50;;;;;;;12.02;100.00;98204.91;5087385;28;20031;-60
2023/10/19 04:33:22;;;;;;;0.50;0.50;;;;;;;11.97;100.00;98204.38;5073657;28;20043;-61
2023/10/19 04:35:55;;;;;;;0.50;0.50;;;;;;;11.95;100.00;98200.94;5090621;28;20016;-60
2023/10/19 04:38:21;;;;;;;0.60;0.60;;;;;;;11.90;100.00;98189.75;5090517;28;20031;-61
2023/10/19 04:40:46;;;;;;;0.50;0.50;;;;;;;11.86;100.00;98201.56;5090975;28;20484;-61
2023/10/19 04:43:12;;;;;;;0.40;0.40;;;;;;;11.82;100.00;98200.91;5074993;28;20488;-60
2023/10/19 04:45:39;;;;;;;0.50;0.50;;;;;;;11.81;100.00;98198.34;5070491;28;20037;-61
2023/10/19 04:48:05;;;;;;;0.50;0.50;;;;;;;11.84;100.00;98192.81;5070652;28;20036;-60
2023/10/19 04:50:31;;;;;;;0.60;0.60;;;;;;;11.86;100.00;98180.25;5070751;28;20032;-60
2023/10/19 04:52:56;;;;;;;0.50;0.50;;;;;;;11.85;100.00;98174.06;5084138;28;20036;-60
2023/10/19 04:55:22;;;;;;;0.60;0.60;;;;;;;11.84;100.00;98175.00;5089550;28;20028;-60
2023/10/19 04:57:48;;;;;;;0.50;0.50;;;;;;;11.78;100.00;98172.75;5089881;28;20101;-60
2023/10/19 05:00:15;;;;;;;0.50;0.50;;;;;;;11.82;100.00;98173.41;5089193;28;20051;-60
2023/10/19 05:02:41;;;;;;;0.50;0.50;;;;;;;11.81;100.00;98177.06;5071300;28;20020;-61
2023/10/19 05:05:07;;;;;;;0.52;0.52;;;;;;;11.76;100.00;98163.19;5069026;28;20119;-61
2023/10/19 05:07:33;;;;;;;0.50;0.50;;;;;;;11.81;100.00;98169.06;5078976;28;20128;-61
2023/10/19 05:09:59;;;;;;;0.50;0.50;;;;;;;11.90;100.00;98173.75;5070128;28;20032;-61
2023/10/19 05:12:24;;;;;;;0.50;0.50;;;;;;;12.00;100.00;98172.19;5070013;28;20057;-61
2023/10/19 05:14:50;;;;;;;0.60;0.60;;;;;;;12.11;100.00;98168.81;5072250;28;20033;-60
2023/10/19 05:17:16;;;;;;;0.50;0.50;;;;;;;12.15;100.00;98176.47;5069957;28;20074;-60
2023/10/19 05:19:41;;;;;;;0.50;0.50;;;;;;;12.14;100.00;98176.59;5083884;28;20035;-60
2023/10/19 05:22:08;;;;;;;0.50;0.50;;;;;;;12.15;100.00;98175.63;5090237;28;20036;-60
2023/10/19 05:24:35;;;;;;;0.50;0.50;;;;;;;12.16;100.00;98164.84;5088364;28;20456;-60
2023/10/19 05:27:01;;;;;;;0.50;0.50;;;;;;;12.23;100.00;98168.81;5076482;28;20032;-60
2023/10/19 05:29:27;;;;;;;0.50;0.50;;;;;;;12.23;100.00;98158.16;5089302;28;20046;-60
2023/10/19 05:31:53;;;;;;;0.60;0.60;;;;;;;12.31;100.00;98166.47;5089101;28;20028;-60
2023/10/19 05:34:22;;;;;;;0.60;0.60;;;;;;;12.34;100.00;98160.91;5073519;28;20099;-58
2023/10/19 05:36:51;;;;;;;0.50;0.50;;;;;;;12.34;100.00;98155.59;5068850;28;20033;-58
2023/10/19 05:39:17;;;;;;;0.55;0.55;;;;;;;12.30;100.00;98159.44;5068080;28;20082;-58
2023/10/19 05:41:43;;;;;;;0.50;0.50;;;;;;;12.20;100.00;98149.50;5081522;28;20036;-58
2023/10/19 05:44:09;;;;;;;0.50;0.50;;;;;;;12.20;100.00;98158.34;5069420;28;20054;-58
2023/10/19 05:46:35;;;;;;;0.50;0.50;;;;;;;12.10;100.00;98154.63;5069244;28;20025;-58
2023/10/19 05:49:03;;;;;;;0.50;0.50;;;;;;;12.10;100.00;98161.75;5069918;28;20120;-58
2023/10/19 05:51:29;;;;;;;0.50;0.50;;;;;;;12.04;100.00;98154.19;5077593;28;20056;-59
2023/10/19 05:54:01;;;;;;;0.50;0.50;;;;;;;12.00;100.00;98156.19;5089142;28;20627;-58
2023/10/19 05:56:34;;;;;;;0.50;0.50;;;;;;;11.96;100.00;98160.00;5088540;28;20056;-58
2023/10/19 05:59:00;;;;;;;0.60;0.60;;;;;;;11.88;100.00;98149.03;5086204;28;20031;-58
2023/10/19 06:01:26;;;;;;;0.50;0.50;;;;;;;11.83;100.00;98154.66;5078263;28;20067;-58
2023/10/19 06:03:52;;;;;;;0.52;0.52;;;;;;;11.83;100.00;98148.47;5068350;28;20047;-58
2023/10/19 06:06:19;;;;;;;0.60;0.60;;;;;;;11.79;100.00;98150.47;5067559;28;20025;-58
2023/10/19 06:08:45;;;;;;;0.50;0.50;;;;;;;11.72;100.00;98151.00;5069501;28;20032;-58
2023/10/19 06:11:10;;;;;;;0.50;0.50;;;;;;;11.66;100.00;98149.59;5081059;28;20052;-58
2023/10/19 06:13:35;;;;;;;0.50;0.50;;;;;;;11.66;100.00;98148.78;5071341;28;20395;-58
2023/10/19 06:16:01;;;;;;;0.60;0.60;;;;;;;11.66;100.00;98138.94;5083738;28;20020;-57
2023/10/19 06:18:26;;;;;;;0.50;0.50;;;;;;;11.69;100.00;98145.91;5069255;28;20419;-58
2023/10/19 06:20:54;;;;;;;0.50;0.50;;;;;;;11.76;100.00;98141.88;5085630;28;20103;-58
2023/10/19 06:23:20;;;;;;;0.60;0.60;;;;;;;11.86;100.00;98150.97;5082279;28;20032;-58
2023/10/19 06:25:46;;;;;;;0.50;0.50;;;;;;;11.98;100.00;98146.63;5089718;28;20034;-58
2023/10/19 06:28:12;;;;;;;0.50;0.50;;;;;;;12.11;100.00;98137.66;5088970;28;20035;-58
2023/10/19 06:30:37;;;;;;;0.57;0.57;;;;;;;12.27;100.00;98149.00;5084515;28;20090;-58
2023/10/19 06:33:03;;;;;;;0.50;0.50;;;;;;;12.37;100.00;98133.19;5075945;28;20020;-57
2023/10/19 06:35:33;;;;;;;0.60;0.60;;;;;;;12.44;100.00;98140.66;5088233;28;20035;-57
2023/10/19 06:38:03;;;;;;;0.50;0.50;;;;;;;12.54;100.00;98131.06;5075016;28;20538;-57
2023/10/19 06:40:29;;;;;;;0.50;0.50;;;;;;;12.66;100.00;98135.53;5068458;28;20400;-58
2023/10/19 06:42:56;;;;;;;0.50;0.50;;;;;;;12.79;100.00;98132.84;5068083;28;20033;-58
2023/10/19 06:45:21;;;;;;;0.50;0.50;;;;;;;12.90;100.00;98130.25;5068477;28;20507;-59
2023/10/19 06:47:49;;;;;;;0.50;0.50;;;;;;;12.98;100.00;98126.06;5070647;28;20048;-58
2023/10/19 06:50:16;;;;;;;0.50;0.50;;;;;;;13.02;100.00;98119.59;5068601;28;20096;-58
2023/10/19 06:52:43;;;;;;;0.50;0.50;;;;;;;13.12;100.00;98117.97;5076114;28;20775;-58
2023/10/19 06:55:13;;;;;;;0.50;0.50;;;;;;;13.19;100.00;98121.88;5090110;28;20482;-58
2023/10/19 06:57:43;;;;;;;0.50;0.50;;;;;;;13.24;100.00;98127.72;5071603;28;20031;-58
2023/10/19 07:00:19;;;;;;;0.50;0.50;;;;;;;13.30;100.00;98131.78;5053817;28;20107;-59
2023/10/19 07:02:46;;;;;;;0.60;0.60;;;;;;;13.32;100.00;98124.50;5081341;28;20677;-57
2023/10/19 07:05:13;;;;;;;0.50;0.50;;;;;;;13.34;100.00;98133.25;5093234;28;20036;-58
2023/10/19 07:07:42;;;;;;;0.50;0.50;;;;;;;13.48;100.00;98130.41;5092998;28;20031;-58
2023/10/19 07:10:11;;;;;;;0.50;0.50;;;;;;;13.89;100.00;98135.31;5088659;28;20036;-58
2023/10/19 07:12:37;;;;;;;0.40;0.40;;;;;;;13.94;100.00;98130.47;5072233;28;20091;-58
2023/10/19 07:15:07;;;;;;;0.50;0.50;;;;;;;13.90;100.00;98137.03;5072539;28;20056;-58
2023/10/19 07:17:33;;;;;;;0.40;0.40;;;;;;;13.84;100.00;98138.34;5087828;28;20042;-58
2023/10/19 07:19:59;;;;;;;0.40;0.40;;;;;;;13.82;100.00;98134.94;5092396;28;20020;-58
2023/10/19 07:22:25;;;;;;;0.50;0.50;;;;;;;13.85;100.00;98139.19;5083642;28;20122;-58
2023/10/19 07:24:51;;;;;;;0.40;0.40;;;;;;;13.94;100.00;98141.16;5092341;28;20024;-58
2023/10/19 07:27:19;;;;;;;0.50;0.50;;;;;;;14.04;100.00;98143.03;5091105;28;20032;-58
2023/10/19 07:29:45;;;;;;;0.50;0.50;;;;;;;14.19;100.00;98146.34;5090189;28;20080;-58
2023/10/19 07:32:16;;;;;;;0.40;0.40;;;;;;;14.39;100.00;98135.88;5088400;28;20090;-59
2023/10/19 07:34:44;;;;;;;0.50;0.50;;;;;;;14.64;100.00;98134.81;5092410;28;20682;-58
2023/10/19 07:37:14;;;;;;;0.50;0.50;;;;;;;14.84;100.00;98136.75;5091933;28;20069;-58
2023/10/19 07:39:44;;;;;;;0.35;0.35;;;;;;;14.97;100.00;98128.59;5089852;28;20035;-58
2023/10/19 07:42:11;;;;;;;0.40;0.40;;;;;;;15.25;100.00;98131.59;5089831;28;20051;-58
2023/10/19 07:44:36;;;;;;;0.40;0.40;;;;;;;15.71;100.00;98121.50;5072687;28;20125;-58
2023/10/19 07:47:02;;;;;;;0.38;0.38;;;;;;;16.02;100.00;98122.47;5078149;28;20063;-58
2023/10/19 07:49:27;;;;;;;0.40;0.40;;;;;;;16.18;100.00;98132.72;5070474;28;20055;-58
2023/10/19 07:51:53;;;;;;;0.40;0.40;;;;;;;16.21;100.00;98121.75;5073111;28;20459;-58
2023/10/19 07:54:18;;;;;;;0.40;0.40;;;;;;;16.31;100.00;98130.72;5090616;28;20066;-58
2023/10/19 07:56:44;;;;;;;0.30;0.30;;;;;;;16.47;100.00;98133.81;5090937;28;20027;-58
2023/10/19 07:59:09;;;;;;;0.38;0.38;;;;;;;16.56;100.00;98133.00;5077197;28;20066;-58
2023/10/19 08:01:36;;;;;;;0.30;0.30;;;;;;;16.75;100.00;98141.19;5073800;28;20369;-58
2023/10/19 08:04:02;;;;;;;0.30;0.30;;;;;;;16.96;100.00;98131.22;5073133;28;20033;-58
2023/10/19 08:06:27;;;;;;;0.30;0.30;;;;;;;17.32;100.00;98116.34;5091584;28;20024;-58
2023/10/19 08:08:53;;;;;;;0.30;0.30;;;;;;;17.52;100.00;98119.00;5091787;28;20518;-58
2023/10/19 08:11:18;;;;;;;0.40;0.40;;;;;;;17.65;100.00;98116.03;5088012;28;20654;-58
2023/10/19 08:13:43;;;;;;;0.30;0.30;;;;;;;17.79;100.00;98115.63;5072747;28;20523;-58
2023/10/19 08:16:09;;;;;;;0.30;0.30;;;;;;;17.88;100.00;98120.13;5085330;28;20035;-58
2023/10/19 08:18:35;;;;;;;0.30;0.30;;;;;;;17.94;100.00;98120.41;5091196;28;20099;-58
2023/10/19 08:21:01;;;;;;;0.30;0.30;;;;;;;18.00;100.00;98127.09;5091832;28;20028;-58
2023/10/19 08:23:27;;;;;;;0.30;0.30;;;;;;;18.12;100.00;98123.28;5085334;28;20544;-58
2023/10/19 08:25:54;;;;;;;0.40;0.40;;;;;;;18.35;100.00;98120.09;5091241;28;20028;-58
2023/10/19 08:28:20;;;;;;;0.30;0.30;;;;;;;18.47;100.00;98120.00;5083607;28;20047;-58
2023/10/19 08:30:56;;;;;;;0.30;0.30;;;;;;;18.63;98.99;98120.22;5075255;28;20077;-58
2023/10/19 08:33:29;;;;;;;0.32;0.32;;;;;;;18.93;98.75;98122.69;5089682;28;20028;-57
2023/10/19 08:35:56;;;;;;;0.30;0.30;;;;;;;19.14;97.81;98116.03;5090922;28;20020;-58
2023/10/19 08:38:23;;;;;;;0.20;0.20;;;;;;;19.31;97.06;98109.03;5086370;28;20031;-58
2023/10/19 08:40:49;;;;;;;0.30;0.30;;;;;;;20.06;96.96;98111.34;5089987;28;20028;-58
2023/10/19 08:43:17;;;;;;;0.30;0.30;;;;;;;20.96;91.74;98104.59;5083194;28;20024;-57
2023/10/19 08:45:43;;;;;;;0.20;0.20;;;;;;;21.62;85.27;98093.91;5069730;28;20089;-58
2023/10/19 08:48:09;;;;;;;0.20;0.20;;;;;;;22.26;81.30;98094.00;5069450;28;20040;-58
2023/10/19 08:50:34;;;;;;;0.20;0.20;;;;;;;22.71;77.64;98091.63;5068588;28;20052;-58
2023/10/19 08:53:05;;;;;;;0.20;0.20;;;;;;;22.81;74.66;98084.16;5078375;28;20655;-57
2023/10/19 08:55:31;;;;;;;0.20;0.20;;;;;;;23.06;74.33;98082.22;5089471;28;20025;-58
2023/10/19 08:58:00;;;;;;;0.20;0.20;;;;;;;23.05;74.43;98081.38;5089065;28;20483;-58
2023/10/19 09:00:26;;;;;;;0.20;0.20;;;;;;;22.72;74.60;98079.75;5088769;28;20028;-58
2023/10/19 09:02:56;;;;;;;0.20;0.20;;;;;;;22.34;74.72;98080.44;5073206;28;20100;-57
2023/10/19 09:05:22;;;;;;;0.20;0.20;;;;;;;21.94;76.58;98078.59;5069138;28;20547;-57
2023/10/19 09:07:54;;;;;;;0.20;0.20;;;;;;;21.71;78.17;98082.09;5071272;28;20028;-58
2023/10/19 09:10:27;;;;;;;0.20;0.20;;;;;;;21.46;80.14;98077.63;5067604;28;20485;-58
2023/10/19 09:13:04;;;;;;;;;;;;;;;21.57;81.54;98080.00;5086602;28;20040;-58
2023/10/19 09:15:32;;;;;;;0.20;0.20;;;;;;;21.75;81.36;98073.47;5074772;28;20003;-58
2023/10/19 09:18:17;;;;;;;0.20;0.20;;;;;;;21.81;78.78;98072.00;5088824;28;20646;-57
2023/10/19 09:20:55;;;;;;;0.20;0.20;;;;;;;21.57;80.11;98070.06;5089289;28;20467;-57
2023/10/19 09:23:26;;;;;;;0.15;0.15;;;;;;;21.17;80.46;98067.22;5073446;28;20728;-58
2023/10/19 09:25:52;;;;;;;0.20;0.20;;;;;;;20.81;82.17;98061.13;5069392;28;20017;-58
2023/10/19 09:28:18;;;;;;;0.20;0.20;;;;;;;20.47;84.01;98067.50;5069696;28;20112;-58
2023/10/19 09:30:44;;;;;;;0.20;0.20;;;;;;;20.13;86.12;98061.16;5071412;28;20028;-57
2023/10/19 09:33:10;;;;;;;0.20;0.20;;;;;;;19.91;88.12;98059.78;5068919;28;20032;-58
2023/10/19 09:35:38;;;;;;;0.20;0.20;;;;;;;19.81;88.81;98050.91;5068798;28;20040;-58
2023/10/19 09:38:07;;;;;;;0.20;0.20;;;;;;;19.67;90.36;98046.91;5081383;28;20036;-58
2023/10/19 09:40:33;;;;;;;0.20;0.20;;;;;;;19.60;91.50;98061.19;5088744;28;20484;-57
2023/10/19 09:43:06;;;;;;;0.20;0.20;;;;;;;19.47;92.34;98061.53;5083935;28;20082;-58
2023/10/19 09:45:37;;;;;;;;;;;;;;;19.37;93.38;98065.31;5086576;28;20081;-58
2023/10/19 09:48:05;;;;;;;0.20;0.20;;;;;;;19.12;94.51;98034.50;5089242;28;19912;-58
2023/10/19 09:50:31;;;;;;;0.20;0.20;;;;;;;19.04;95.23;98057.81;5071504;28;20082;-58
2023/10/19 09:52:58;;;;;;;0.20;0.20;;;;;;;18.84;97.06;98067.00;5075160;28;20483;-58
2023/10/19 09:55:34;;;;;;;0.20;0.20;;;;;;;18.74;98.23;98063.47;5088622;28;20038;-58
2023/10/19 09:58:09;;;;;;;0.20;0.20;;;;;;;18.65;99.00;98069.78;5084793;28;20024;-58
2023/10/19 10:00:35;;;;;;;0.20;0.20;;;;;;;18.53;99.82;98060.16;5089424;28;20039;-58
2023/10/19 10:03:02;;;;;;;0.20;0.20;;;;;;;18.43;100.00;98060.22;5083736;28;20028;-58
2023/10/19 10:05:43;;;;;;;0.22;0.22;;;;;;;18.33;100.00;98056.66;5089448;28;20028;-58
2023/10/19 10:08:17;;;;;;;0.20;0.20;;;;;;;18.22;100.00;98057.66;5089603;28;20213;-57
2023/10/19 10:10:47;;;;;;;0.20;0.20;;;;;;;18.14;100.00;98056.69;5088459;28;20085;-58
2023/10/19 10:13:24;;;;;;;0.20;0.20;;;;;;;18.13;100.00;98060.38;5085463;28;20109;-59
2023/10/19 10:15:52;;;;;;;0.20;0.20;;;;;;;18.11;100.00;98049.75;5089168;28;20047;-59
2023/10/19 10:18:17;;;;;;;0.30;0.30;;;;;;;18.03;100.00;98055.03;5082136;28;20561;-59
2023/10/19 10:20:43;;;;;;;0.20;0.20;;;;;;;17.90;100.00;98048.22;5070063;28;20020;-59
2023/10/19 10:23:24;;;;;;;0.20;0.20;;;;;;;17.85;100.00;98051.34;5088418;28;20036;-59
2023/10/19 10:25:53;;;;;;;0.20;0.20;;;;;;;17.80;100.00;98048.25;5086953;28;20027;-59
2023/10/19 10:28:19;;;;;;;0.20;0.20;;;;;;;17.77;100.00;98031.53;5076303;28;20028;-59
2023/10/19 10:31:21;;;;;;;0.30;0.30;;;;;;;17.74;100.00;98024.59;5088021;28;20769;-60
2023/10/19 10:33:54;;;;;;;0.30;0.30;;;;;;;17.68;100.00;98022.47;5004777;28;20509;-59
2023/10/19 10:36:20;;;;;;;0.30;0.30;;;;;;;17.65;100.00;98001.25;5058126;28;20043;-59
2023/10/19 10:38:48;;;;;;;0.30;0.30;;;;;;;17.54;100.00;98001.41;5067206;28;20112;-60
2023/10/19 10:41:27;;;;;;;0.20;0.20;;;;;;;17.51;100.00;97985.53;5067520;28;20067;-60
2023/10/19 10:43:55;;;;;;;0.30;0.30;;;;;;;17.56;100.00;97988.66;5085341;28;20111;-60
2023/10/19 10:46:22;;;;;;;0.30;0.30;;;;;;;17.53;100.00;97991.63;5087890;28;20494;-60
2023/10/19 10:48:48;;;;;;;0.22;0.22;;;;;;;17.52;100.00;97998.00;5076464;28;20028;-60
2023/10/19 10:51:21;;;;;;;0.30;0.30;;;;;;;17.52;100.00;97995.34;5068075;28;20028;-60
2023/10/19 10:53:51;;;;;;;0.30;0.30;;;;;;;17.53;100.00;97985.44;5081866;28;20073;-60
2023/10/19 10:56:18;;;;;;;0.30;0.30;;;;;;;17.53;100.00;97991.63;5088954;28;20093;-60
2023/10/19 10:58:44;;;;;;;0.30;0.30;;;;;;;17.57;100.00;98003.81;5085386;28;20107;-60
2023/10/19 11:01:10;;;;;;;0.30;0.30;;;;;;;17.61;100.00;97999.00;5088711;28;20455;-60
2023/10/19 11:03:40;;;;;;;0.30;0.30;;;;;;;17.64;100.00;98004.09;5089022;28;20028;-60
2023/10/19 11:06:09;;;;;;;0.20;0.20;;;;;;;17.70;100.00;97993.63;5086936;28;20877;-60
2023/10/19 11:08:37;;;;;;;0.22;0.22;;;;;;;17.78;100.00;97982.97;5068842;28;20102;-60
2023/10/19 11:11:10;;;;;;;0.20;0.20;;;;;;;17.88;100.00;97981.13;5068501;28;20376;-60
2023/10/19 11:13:37;;;;;;;0.30;0.30;;;;;;;17.97;100.00;97974.03;5074667;28;20396;-60
2023/10/19 11:16:05;;;;;;;0.20;0.20;;;;;;;18.05;100.00;97982.22;5081216;28;20480;-60
2023/10/19 11:18:37;;;;;;;0.30;0.30;;;;;;;18.15;100.00;97978.50;5068238;28;20085;-60
2023/10/19 11:21:06;;;;;;;0.30;0.30;;;;;;;18.22;100.00;97984.13;5080879;28;20060;-60
2023/10/19 11:23:43;;;;;;;0.30;0.30;;;;;;;18.31;100.00;97985.97;5079228;28;20034;-58
2023/10/19 11:26:12;;;;;;;0.20;0.20;;;;;;;18.41;100.00;97994.03;5088041;28;20020;-58
2023/10/19 11:28:43;;;;;;;0.20;0.20;;;;;;;18.42;100.00;97984.97;5087813;28;20036;-58
2023/10/19 11:31:17;;;;;;;0.20;0.20;;;;;;;18.47;100.00;97996.97;5075322;28;20665;-57
2023/10/19 11:33:44;;;;;;;0.20;0.20;;;;;;;18.52;100.00;97991.16;5067363;28;20388;-58
2023/10/19 11:36:12;;;;;;;0.20;0.20;;;;;;;18.54;100.00;97994.53;5070793;28;20132;-58
2023/10/19 11:38:42;;;;;;;0.20;0.20;;;;;;;18.58;100.00;97988.72;5071091;28;20038;-58
2023/10/19 11:41:07;;;;;;;0.20;0.20;;;;;;;18.60;100.00;97984.00;5071957;28;20067;-58
2023/10/19 11:43:34;;;;;;;0.20;0.20;;;;;;;18.68;100.00;97989.50;5071964;28;20036;-58
2023/10/19 11:46:00;;;;;;;0.22;0.22;;;;;;;18.74;100.00;97990.75;5074357;28;20047;-59